Time;durP1;ratioP1;P1;durP2;ratioP2;P2;SDS_P1;SDS_P2;PMS_P1;PMS_P2;Temp;Humidity;BMP_temperature;BMP_pressure;BME280_temperature;BME280_humidity;BME280_pressure;Samples;Min_cycle;Max_cycle;Signal;HPM_P1;HPM_P2
2024/01/28 00:01:21;;;;;;;5.70;5.17;;;21.70;66.80;;;;;;4985479;28;21092;-81
2024/01/28 00:03:49;;;;;;;7.53;5.77;;;21.80;66.90;;;;;;4985235;28;20543;-82
2024/01/28 00:06:16;;;;;;;5.33;4.83;;;21.70;66.80;;;;;;4983684;28;20454;-81
2024/01/28 00:08:43;;;;;;;6.90;5.10;;;21.70;66.90;;;;;;4984880;28;20470;-81
2024/01/28 00:11:10;;;;;;;7.57;5.30;;;21.80;67.00;;;;;;4982156;28;20458;-80
2024/01/28 00:13:37;;;;;;;5.37;4.87;;;21.70;66.90;;;;;;4983716;28;20469;-83
2024/01/28 00:16:04;;;;;;;7.10;6.40;;;21.70;67.00;;;;;;4981964;28;20458;-80
2024/01/28 00:18:31;;;;;;;6.40;5.80;;;21.70;67.00;;;;;;4987499;28;21403;-82
2024/01/28 00:20:59;;;;;;;5.87;5.30;;;21.70;67.00;;;;;;4987114;28;20476;-82
2024/01/28 00:23:26;;;;;;;5.50;5.00;;;21.80;67.30;;;;;;4985278;28;21421;-81
2024/01/28 00:25:52;;;;;;;5.93;5.37;;;21.70;67.50;;;;;;4983478;28;20468;-83
2024/01/28 00:28:19;;;;;;;5.30;4.80;;;21.70;67.80;;;;;;4987352;28;21040;-81
2024/01/28 00:30:46;;;;;;;7.50;6.03;;;21.80;67.00;;;;;;4987499;28;20457;-83
2024/01/28 00:33:13;;;;;;;6.03;5.03;;;21.80;67.10;;;;;;4986618;28;20458;-84
2024/01/28 00:35:39;;;;;;;5.70;5.00;;;21.80;67.90;;;;;;4988417;28;20454;-81
2024/01/28 00:38:08;;;;;;;8.20;5.60;;;21.70;67.00;;;;;;4989117;28;20492;-83
2024/01/28 00:40:34;;;;;;;7.10;5.57;;;21.70;67.10;;;;;;4989188;28;20462;-83
2024/01/28 00:43:03;;;;;;;6.17;5.57;;;21.80;67.00;;;;;;4989580;28;20473;-82
2024/01/28 00:45:30;;;;;;;6.00;5.10;;;21.70;66.90;;;;;;4982953;28;20442;-82
2024/01/28 00:47:57;;;;;;;8.63;6.00;;;21.70;67.10;;;;;;4982349;28;20545;-81
2024/01/28 00:50:23;;;;;;;5.63;4.67;;;21.80;67.10;;;;;;4967161;28;20463;-81
2024/01/28 00:52:50;;;;;;;5.60;5.03;;;21.80;67.00;;;;;;4989557;28;20470;-82
2024/01/28 00:55:18;;;;;;;6.03;5.27;;;21.70;67.00;;;;;;4983821;28;20453;-81
2024/01/28 00:57:45;;;;;;;5.87;5.27;;;21.70;67.00;;;;;;4984713;28;20462;-83
2024/01/28 01:00:13;;;;;;;7.47;5.53;;;21.70;67.10;;;;;;4982517;28;20945;-82
2024/01/28 01:02:39;;;;;;;5.37;4.30;;;21.70;67.10;;;;;;4984522;28;20472;-80
2024/01/28 01:05:07;;;;;;;6.77;5.77;;;21.70;67.10;;;;;;4981109;28;20464;-80
2024/01/28 01:07:33;;;;;;;7.40;4.90;;;21.70;66.90;;;;;;4980342;28;20639;-81
2024/01/28 01:10:00;;;;;;;5.93;5.10;;;21.70;67.10;;;;;;4979955;28;20454;-80
2024/01/28 01:12:29;;;;;;;4.80;4.40;;;21.70;67.00;;;;;;4978882;28;20540;-82
2024/01/28 01:14:56;;;;;;;6.87;4.87;;;21.70;67.00;;;;;;4984224;28;20467;-82
2024/01/28 01:17:23;;;;;;;5.90;5.03;;;21.70;67.00;;;;;;4981415;28;21576;-80
2024/01/28 01:19:49;;;;;;;5.40;4.23;;;21.70;67.00;;;;;;4983239;28;20486;-79
2024/01/28 01:22:16;;;;;;;5.37;4.87;;;21.70;67.00;;;;;;4985811;28;20473;-80
2024/01/28 01:24:43;;;;;;;5.97;4.63;;;21.70;66.90;;;;;;4988166;28;20477;-81
2024/01/28 01:27:09;;;;;;;5.93;4.67;;;21.70;66.80;;;;;;4983418;28;21075;-81
2024/01/28 01:29:38;;;;;;;6.83;5.07;;;21.70;66.90;;;;;;4973393;28;20476;-80
2024/01/28 01:32:05;;;;;;;7.57;5.50;;;21.70;67.00;;;;;;4981309;28;20509;-78
2024/01/28 01:34:31;;;;;;;6.00;4.77;;;21.70;66.90;;;;;;4985658;28;20477;-80
2024/01/28 01:36:58;;;;;;;4.70;4.20;;;21.70;66.90;;;;;;4984991;28;20503;-81
2024/01/28 01:39:25;;;;;;;6.33;5.80;;;21.70;66.90;;;;;;4984832;28;20482;-81
2024/01/28 01:41:52;;;;;;;5.13;4.60;;;21.70;67.80;;;;;;4988783;28;20466;-79
2024/01/28 01:44:20;;;;;;;6.53;4.70;;;21.60;66.80;;;;;;4986422;28;20450;-79
2024/01/28 01:46:48;;;;;;;8.47;5.80;;;21.60;66.80;;;;;;4988726;28;20457;-81
2024/01/28 01:49:15;;;;;;;5.00;4.10;;;21.70;67.00;;;;;;4982099;28;20473;-80
2024/01/28 01:51:44;;;;;;;5.13;4.63;;;21.60;66.80;;;;;;4987624;28;20465;-80
2024/01/28 01:54:11;;;;;;;5.57;4.30;;;21.60;66.70;;;;;;4981894;28;20458;-81
2024/01/28 01:56:39;;;;;;;5.03;4.40;;;21.60;66.80;;;;;;4990473;28;20457;-80
2024/01/28 01:59:06;;;;;;;7.47;4.73;;;21.60;67.00;;;;;;4979579;28;20482;-80
2024/01/28 02:01:34;;;;;;;5.60;4.37;;;21.60;66.80;;;;;;4983436;28;21030;-79
2024/01/28 02:04:02;;;;;;;4.82;4.30;;;21.60;66.90;;;;;;4986831;28;20469;-80
2024/01/28 02:06:29;;;;;;;5.23;4.73;;;21.60;66.90;;;;;;4984399;28;20213;-80
2024/01/28 02:08:56;;;;;;;5.13;4.63;;;21.60;66.90;;;;;;4985726;28;20461;-80
2024/01/28 02:11:23;;;;;;;5.23;4.70;;;21.60;66.80;;;;;;4983121;28;20460;-79
2024/01/28 02:13:50;;;;;;;5.17;4.67;;;21.60;66.80;;;;;;4976215;28;20454;-78
2024/01/28 02:16:17;;;;;;;5.33;4.83;;;21.60;66.80;;;;;;4976934;28;20458;-81
2024/01/28 02:18:44;;;;;;;5.73;4.83;;;21.60;66.80;;;;;;4981216;28;20492;-80
2024/01/28 02:21:12;;;;;;;5.43;4.03;;;21.60;66.80;;;;;;4976621;28;22229;-81
2024/01/28 02:23:40;;;;;;;5.67;4.67;;;21.60;66.90;;;;;;4982635;28;20462;-80
2024/01/28 02:26:07;;;;;;;5.50;5.00;;;21.60;67.00;;;;;;4977541;28;20945;-81
2024/01/28 02:28:35;;;;;;;4.97;4.47;;;21.60;67.00;;;;;;4979375;28;20466;-80
2024/01/28 02:31:02;;;;;;;4.73;4.27;;;21.60;66.90;;;;;;4977084;28;20461;-81
2024/01/28 02:33:28;;;;;;;4.90;4.40;;;21.60;66.70;;;;;;4975294;28;21340;-81
2024/01/28 02:35:55;;;;;;;4.33;3.93;;;21.60;66.80;;;;;;4972546;28;20461;-80
2024/01/28 02:38:22;;;;;;;5.80;4.40;;;21.60;67.00;;;;;;4976396;28;20458;-81
2024/01/28 02:40:52;;;;;;;4.40;4.00;;;21.60;66.80;;;;;;4978071;28;20458;-81
2024/01/28 02:43:18;;;;;;;6.10;4.43;;;21.60;66.80;;;;;;4977320;28;20470;-81
2024/01/28 02:45:45;;;;;;;5.07;3.90;;;21.60;66.80;;;;;;4974263;28;20458;-81
2024/01/28 02:48:12;;;;;;;4.10;3.70;;;21.60;66.80;;;;;;4977369;28;20454;-80
2024/01/28 02:50:39;;;;;;;5.10;4.60;;;21.60;66.80;;;;;;4977109;28;20473;-80
2024/01/28 02:53:05;;;;;;;4.43;4.03;;;21.60;66.90;;;;;;4977818;28;20904;-81
2024/01/28 02:55:32;;;;;;;5.43;4.23;;;21.60;66.80;;;;;;4982443;28;20458;-80
2024/01/28 02:58:00;;;;;;;4.90;4.50;;;21.60;67.00;;;;;;4981451;28;20466;-81
2024/01/28 03:00:27;;;;;;;4.77;4.27;;;21.60;66.80;;;;;;4975631;28;20625;-80
2024/01/28 03:02:54;;;;;;;4.40;4.00;;;21.60;66.80;;;;;;4977079;28;20458;-79
2024/01/28 03:05:21;;;;;;;4.77;4.37;;;21.60;66.70;;;;;;4964843;28;20470;-80
2024/01/28 03:07:47;;;;;;;4.17;3.77;;;21.60;66.80;;;;;;4976227;28;20461;-81
2024/01/28 03:10:14;;;;;;;3.70;3.40;;;21.60;66.80;;;;;;4977762;28;20458;-81
2024/01/28 03:12:41;;;;;;;4.15;3.53;;;21.60;66.60;;;;;;4979039;28;20465;-80
2024/01/28 03:15:10;;;;;;;4.47;4.07;;;21.60;66.70;;;;;;4973892;28;20200;-79
2024/01/28 03:17:37;;;;;;;4.23;3.80;;;21.60;66.90;;;;;;4974225;28;20463;-80
2024/01/28 03:20:04;;;;;;;4.03;3.70;;;21.60;66.80;;;;;;4974905;28;20490;-80
2024/01/28 03:22:31;;;;;;;3.80;3.50;;;21.60;66.80;;;;;;4978670;28;20335;-80
2024/01/28 03:24:58;;;;;;;4.50;4.10;;;21.60;66.70;;;;;;4973961;28;21135;-80
2024/01/28 03:27:24;;;;;;;4.77;3.87;;;21.60;66.90;;;;;;4976163;28;20474;-79
2024/01/28 03:29:51;;;;;;;4.93;4.50;;;21.60;66.80;;;;;;4973830;28;21524;-80
2024/01/28 03:32:19;;;;;;;5.13;4.60;;;21.60;66.70;;;;;;4968434;28;20462;-80
2024/01/28 03:34:46;;;;;;;5.13;4.07;;;21.60;66.70;;;;;;4973478;28;20469;-80
2024/01/28 03:37:13;;;;;;;5.23;4.73;;;21.60;66.80;;;;;;4976652;28;20644;-80
2024/01/28 03:39:39;;;;;;;4.87;4.17;;;21.60;66.80;;;;;;4974955;28;20485;-82
2024/01/28 03:42:07;;;;;;;4.73;4.00;;;21.60;66.70;;;;;;4973366;28;20929;-82
2024/01/28 03:44:34;;;;;;;4.80;4.30;;;21.60;66.70;;;;;;4973240;28;20465;-79
2024/01/28 03:47:01;;;;;;;5.20;4.70;;;21.60;66.70;;;;;;4967335;28;20465;-79
2024/01/28 03:49:29;;;;;;;4.87;4.33;;;21.60;66.80;;;;;;4966244;28;21465;-81
2024/01/28 03:51:56;;;;;;;3.53;3.20;;;21.60;66.80;;;;;;4971514;28;20466;-80
2024/01/28 03:54:22;;;;;;;4.23;3.83;;;21.60;66.80;;;;;;4970308;28;20977;-80
2024/01/28 03:56:49;;;;;;;4.80;3.77;;;21.60;66.80;;;;;;4966400;28;20508;-80
2024/01/28 03:59:16;;;;;;;4.00;3.60;;;21.60;66.70;;;;;;4974579;28;20486;-80
2024/01/28 04:01:43;;;;;;;4.47;4.07;;;21.60;66.70;;;;;;4966378;28;20872;-79
2024/01/28 04:04:09;;;;;;;4.73;4.33;;;21.60;66.70;;;;;;4969284;28;20213;-80
2024/01/28 04:06:44;;;;;;;4.10;3.67;;;21.60;66.70;;;;;;4966867;28;20466;-80
2024/01/28 04:09:11;;;;;;;4.80;4.40;;;21.60;66.70;;;;;;4966278;28;20457;-81
2024/01/28 04:11:38;;;;;;;4.20;3.80;;;21.60;66.80;;;;;;4967849;28;26904;-79
2024/01/28 04:14:05;;;;;;;3.90;3.60;;;21.60;66.70;;;;;;4965224;28;22071;-81
2024/01/28 04:16:32;;;;;;;5.00;3.83;;;21.60;66.70;;;;;;4969255;28;20458;-81
2024/01/28 04:18:59;;;;;;;4.00;3.60;;;21.60;66.70;;;;;;4971023;28;20213;-80
2024/01/28 04:21:26;;;;;;;4.90;3.87;;;21.60;66.70;;;;;;4972260;28;21527;-81
2024/01/28 04:23:56;;;;;;;3.73;3.17;;;21.60;66.70;;;;;;4967995;28;20469;-80
2024/01/28 04:26:23;;;;;;;4.20;3.80;;;21.60;66.70;;;;;;4967257;28;20469;-80
2024/01/28 04:28:49;;;;;;;3.97;3.53;;;21.50;66.50;;;;;;4966518;28;20473;-80
2024/01/28 04:31:17;;;;;;;4.17;3.83;;;21.50;66.60;;;;;;4966886;28;20470;-80
2024/01/28 04:33:44;;;;;;;4.70;4.07;;;21.50;66.50;;;;;;4971343;28;20581;-80
2024/01/28 04:36:11;;;;;;;4.60;4.20;;;21.50;67.40;;;;;;4970320;28;20519;-80
2024/01/28 04:38:38;;;;;;;3.90;3.60;;;21.50;66.60;;;;;;4974531;28;20462;-80
2024/01/28 04:41:06;;;;;;;4.27;3.57;;;21.50;66.60;;;;;;4970129;28;20473;-81
2024/01/28 04:43:33;;;;;;;3.70;3.40;;;21.50;66.60;;;;;;4973515;28;21152;-80
2024/01/28 04:46:00;;;;;;;4.10;3.37;;;21.50;66.50;;;;;;4973081;28;20593;-80
2024/01/28 04:48:26;;;;;;;5.50;3.83;;;21.50;66.50;;;;;;4972209;28;20493;-80
2024/01/28 04:50:53;;;;;;;4.90;3.50;;;21.50;66.50;;;;;;4972764;28;20473;-78
2024/01/28 04:53:20;;;;;;;4.23;3.20;;;21.50;66.60;;;;;;4971530;28;21343;-81
2024/01/28 04:55:46;;;;;;;3.30;3.10;;;21.50;66.50;;;;;;4977848;28;20454;-80
2024/01/28 04:58:14;;;;;;;4.13;3.20;;;21.50;66.50;;;;;;4973142;28;20960;-80
2024/01/28 05:00:41;;;;;;;3.80;3.50;;;21.50;66.60;;;;;;4978260;28;21375;-79
2024/01/28 05:03:08;;;;;;;4.43;3.40;;;21.50;66.50;;;;;;4974388;28;20458;-80
2024/01/28 05:05:35;;;;;;;3.97;3.57;;;21.50;66.50;;;;;;4970766;28;20465;-80
2024/01/28 05:08:02;;;;;;;3.70;3.13;;;21.50;66.50;;;;;;4976004;28;20462;-81
2024/01/28 05:10:29;;;;;;;4.07;3.67;;;21.50;66.50;;;;;;4975384;28;20454;-80
2024/01/28 05:12:55;;;;;;;4.00;3.60;;;21.50;66.60;;;;;;4976548;28;21331;-80
2024/01/28 05:15:24;;;;;;;3.47;3.17;;;21.50;66.50;;;;;;4976386;28;22393;-81
2024/01/28 05:17:51;;;;;;;4.30;3.70;;;21.50;66.50;;;;;;4972695;28;21036;-80
2024/01/28 05:20:18;;;;;;;4.10;3.67;;;21.50;66.40;;;;;;4969805;28;20477;-80
2024/01/28 05:22:44;;;;;;;3.60;3.30;;;21.50;66.50;;;;;;4975174;28;21141;-80
2024/01/28 05:25:11;;;;;;;3.57;3.17;;;21.50;66.50;;;;;;4974448;28;20466;-80
2024/01/28 05:27:38;;;;;;;4.10;3.07;;;21.50;66.50;;;;;;4976625;28;20454;-81
2024/01/28 05:30:06;;;;;;;3.63;3.33;;;21.50;66.60;;;;;;4968219;28;20479;-80
2024/01/28 05:32:34;;;;;;;3.43;3.13;;;21.50;66.50;;;;;;4966824;28;21008;-80
2024/01/28 05:35:03;;;;;;;3.20;3.00;;;21.50;66.50;;;;;;4967097;28;20466;-81
2024/01/28 05:37:30;;;;;;;3.83;3.47;;;21.50;66.50;;;;;;4974310;28;20207;-81
2024/01/28 05:39:57;;;;;;;3.50;2.90;;;21.50;66.60;;;;;;4965273;28;20489;-81
2024/01/28 05:42:24;;;;;;;4.40;3.17;;;21.50;66.50;;;;;;4970607;28;20470;-80
2024/01/28 05:44:51;;;;;;;3.50;3.20;;;21.50;66.50;;;;;;4971951;28;20964;-80
2024/01/28 05:47:17;;;;;;;3.80;3.50;;;21.50;66.50;;;;;;4966158;28;20470;-82
2024/01/28 05:49:45;;;;;;;4.77;3.93;;;21.50;66.50;;;;;;4962390;28;20465;-80
2024/01/28 05:52:12;;;;;;;4.30;3.30;;;21.50;66.40;;;;;;4975773;28;20470;-80
2024/01/28 05:54:41;;;;;;;4.37;3.73;;;21.50;66.50;;;;;;4972758;28;21317;-80
2024/01/28 05:57:08;;;;;;;3.27;2.90;;;21.50;66.40;;;;;;4978220;28;20468;-80
2024/01/28 05:59:35;;;;;;;3.17;2.87;;;21.50;66.50;;;;;;4976038;28;20602;-79
2024/01/28 06:02:02;;;;;;;3.70;3.40;;;21.50;66.40;;;;;;4970646;28;20457;-80
2024/01/28 06:04:28;;;;;;;3.77;3.47;;;21.50;66.40;;;;;;4959249;28;20490;-79
2024/01/28 06:06:57;;;;;;;3.30;3.00;;;21.50;66.40;;;;;;4974110;28;22074;-80
2024/01/28 06:09:23;;;;;;;3.20;2.90;;;21.50;66.40;;;;;;4972167;28;20454;-80
2024/01/28 06:11:50;;;;;;;4.03;3.63;;;21.50;66.40;;;;;;4975843;28;25022;-79
2024/01/28 06:14:16;;;;;;;3.10;2.90;;;21.50;66.40;;;;;;4970111;28;20462;-79
2024/01/28 06:16:42;;;;;;;3.40;3.10;;;21.50;66.40;;;;;;4968394;28;22427;-78
2024/01/28 06:19:09;;;;;;;3.53;3.22;;;21.50;66.40;;;;;;4967980;28;20208;-78
2024/01/28 06:21:36;;;;;;;3.23;2.93;;;21.50;66.40;;;;;;4976447;28;20216;-80
2024/01/28 06:24:04;;;;;;;3.00;2.70;;;21.50;66.40;;;;;;4981475;28;20980;-79
2024/01/28 06:26:35;;;;;;;3.60;3.30;;;21.50;66.40;;;;;;4979120;28;20467;-80
2024/01/28 06:29:02;;;;;;;3.40;3.10;;;21.50;66.50;;;;;;4961950;28;20549;-83
2024/01/28 06:31:29;;;;;;;3.50;3.20;;;21.50;66.40;;;;;;4954057;28;20501;-79
2024/01/28 06:33:56;;;;;;;3.50;3.20;;;21.50;67.10;;;;;;4956173;28;20504;-80
2024/01/28 06:36:23;;;;;;;2.97;2.77;;;21.50;66.40;;;;;;4972132;28;20961;-79
2024/01/28 06:38:50;;;;;;;3.00;2.67;;;21.50;66.70;;;;;;4980731;28;20462;-79
2024/01/28 06:41:18;;;;;;;5.20;3.67;;;21.50;66.50;;;;;;4958479;28;20486;-81
2024/01/28 06:43:44;;;;;;;3.22;2.92;;;21.50;66.50;;;;;;4959298;28;20454;-81
2024/01/28 06:46:12;;;;;;;4.13;3.17;;;21.50;66.50;;;;;;4959452;28;20257;-82
2024/01/28 06:48:39;;;;;;;4.50;2.97;;;21.50;66.40;;;;;;4963919;28;20539;-83
2024/01/28 06:51:06;;;;;;;3.60;3.30;;;21.50;66.40;;;;;;4970278;28;20491;-80
2024/01/28 06:53:33;;;;;;;3.30;3.00;;;21.40;66.30;;;;;;4978162;28;20477;-80
2024/01/28 06:55:59;;;;;;;3.50;3.20;;;21.50;66.40;;;;;;4976572;28;20200;-80
2024/01/28 06:58:27;;;;;;;5.20;3.13;;;21.50;66.20;;;;;;4977331;28;20465;-81
2024/01/28 07:00:54;;;;;;;3.13;2.83;;;21.50;66.10;;;;;;4973292;28;20487;-81
2024/01/28 07:03:21;;;;;;;4.83;3.20;;;21.50;66.00;;;;;;4979050;28;20456;-80
2024/01/28 07:05:48;;;;;;;3.45;3.15;;;21.50;66.10;;;;;;4983776;28;21218;-82
2024/01/28 07:08:14;;;;;;;3.20;2.90;;;21.50;65.90;;;;;;4980663;28;21109;-80
2024/01/28 07:10:41;;;;;;;3.60;2.77;;;21.40;65.90;;;;;;4978442;28;20465;-80
2024/01/28 07:13:08;;;;;;;3.13;2.73;;;21.40;65.70;;;;;;4974983;28;20463;-81
2024/01/28 07:15:36;;;;;;;3.83;3.53;;;21.40;65.70;;;;;;4976959;28;25492;-80
2024/01/28 07:18:03;;;;;;;3.47;2.90;;;21.40;65.60;;;;;;4974583;28;20915;-80
2024/01/28 07:20:31;;;;;;;4.60;3.30;;;21.30;65.50;;;;;;4977969;28;26624;-80
2024/01/28 07:22:57;;;;;;;2.43;2.10;;;21.30;65.60;;;;;;4972921;28;20795;-80
2024/01/28 07:25:24;;;;;;;3.20;2.90;;;21.30;65.70;;;;;;4975243;28;21595;-80
2024/01/28 07:27:52;;;;;;;3.07;2.60;;;21.30;65.90;;;;;;4976869;28;20194;-82
2024/01/28 07:30:19;;;;;;;3.35;3.05;;;21.30;65.80;;;;;;4972930;28;21096;-80
2024/01/28 07:32:47;;;;;;;3.72;3.38;;;21.30;66.10;;;;;;4971228;28;20852;-80
2024/01/28 07:35:15;;;;;;;3.60;3.20;;;21.30;66.10;;;;;;4980247;28;20215;-81
2024/01/28 07:37:42;;;;;;;3.50;3.20;;;21.30;66.30;;;;;;4971426;28;20504;-81
2024/01/28 07:40:10;;;;;;;2.57;2.37;;;21.30;66.20;;;;;;4977254;28;20878;-82
2024/01/28 07:42:37;;;;;;;4.00;3.40;;;21.30;66.30;;;;;;4976308;28;24898;-81
2024/01/28 07:45:04;;;;;;;3.03;2.72;;;21.30;66.20;;;;;;4970679;28;20588;-81
2024/01/28 07:47:31;;;;;;;2.80;2.50;;;21.30;66.30;;;;;;4976915;28;20206;-81
2024/01/28 07:50:00;;;;;;;3.40;3.10;;;21.40;66.40;;;;;;4969440;28;20465;-82
2024/01/28 07:52:27;;;;;;;3.65;3.35;;;21.40;66.30;;;;;;4974033;28;20458;-81
2024/01/28 07:54:53;;;;;;;3.60;2.83;;;21.40;66.40;;;;;;4976649;28;21075;-80
2024/01/28 07:57:20;;;;;;;3.03;2.70;;;21.40;66.30;;;;;;4971075;28;20462;-82
2024/01/28 07:59:47;;;;;;;3.40;3.00;;;21.40;66.40;;;;;;4978536;28;20470;-81
2024/01/28 08:02:13;;;;;;;3.53;3.17;;;21.40;66.50;;;;;;4976857;28;20481;-82
2024/01/28 08:04:40;;;;;;;3.93;3.57;;;21.40;66.40;;;;;;4977712;28;21492;-82
2024/01/28 08:07:09;;;;;;;3.70;3.40;;;21.40;66.50;;;;;;4980041;28;21083;-84
2024/01/28 08:09:36;;;;;;;2.92;2.63;;;21.40;66.70;;;;;;4980174;28;20213;-81
2024/01/28 08:12:04;;;;;;;2.97;2.70;;;21.40;66.60;;;;;;4975038;28;20333;-81
2024/01/28 08:14:31;;;;;;;2.90;2.70;;;21.40;66.80;;;;;;4972882;28;20465;-81
2024/01/28 08:16:57;;;;;;;3.83;2.95;;;21.40;66.60;;;;;;4979425;28;21494;-81
2024/01/28 08:19:25;;;;;;;3.20;2.83;;;21.40;66.60;;;;;;4976236;28;21420;-80
2024/01/28 08:21:51;;;;;;;3.00;2.80;;;21.40;66.60;;;;;;4981619;28;20479;-79
2024/01/28 08:24:19;;;;;;;2.87;2.57;;;21.40;66.60;;;;;;4977126;28;21119;-81
2024/01/28 08:26:46;;;;;;;3.40;3.10;;;21.40;66.70;;;;;;4981692;28;20462;-80
2024/01/28 08:29:13;;;;;;;3.00;2.40;;;21.40;66.50;;;;;;4976471;28;20470;-81
2024/01/28 08:31:40;;;;;;;2.63;2.17;;;21.40;66.50;;;;;;4978163;28;20450;-83
2024/01/28 08:34:09;;;;;;;2.40;2.17;;;21.40;67.40;;;;;;4972992;28;21567;-81
2024/01/28 08:36:35;;;;;;;2.70;2.50;;;21.40;66.70;;;;;;4982511;28;20496;-81
2024/01/28 08:39:04;;;;;;;4.27;2.40;;;21.40;66.50;;;;;;4978002;28;20469;-81
2024/01/28 08:41:32;;;;;;;2.63;2.10;;;21.40;66.70;;;;;;4977925;28;20485;-80
2024/01/28 08:43:59;;;;;;;2.77;2.50;;;21.40;66.80;;;;;;4982105;28;20479;-81
2024/01/28 08:46:26;;;;;;;3.77;2.53;;;21.40;66.60;;;;;;4980568;28;21134;-82
2024/01/28 08:48:53;;;;;;;2.93;2.30;;;21.40;66.60;;;;;;4984219;28;20494;-82
2024/01/28 08:51:20;;;;;;;2.87;2.67;;;21.40;66.60;;;;;;4982346;28;21334;-81
2024/01/28 08:53:46;;;;;;;2.80;2.03;;;21.40;67.40;;;;;;4979659;28;20458;-82
2024/01/28 08:56:13;;;;;;;3.27;2.20;;;21.40;66.80;;;;;;4985574;28;20475;-81
2024/01/28 08:58:41;;;;;;;2.78;2.50;;;21.40;66.60;;;;;;4986555;28;25081;-80
2024/01/28 09:01:11;;;;;;;4.90;2.80;;;21.40;66.70;;;;;;4988566;28;20224;-81
2024/01/28 09:03:38;;;;;;;4.77;2.50;;;21.40;66.60;;;;;;4978571;28;25565;-81
2024/01/28 09:06:06;;;;;;;2.93;2.00;;;21.40;66.70;;;;;;4982806;28;20454;-80
2024/01/28 09:08:33;;;;;;;2.97;2.60;;;21.40;66.70;;;;;;4988207;28;20493;-81
2024/01/28 09:11:00;;;;;;;3.00;2.40;;;21.40;66.70;;;;;;4990196;28;20446;-80
2024/01/28 09:13:27;;;;;;;2.67;2.30;;;21.40;66.70;;;;;;4985076;28;21000;-81
2024/01/28 09:15:55;;;;;;;2.63;2.40;;;21.50;66.80;;;;;;4987827;28;21118;-81
2024/01/28 09:18:22;;;;;;;3.07;2.70;;;21.40;66.70;;;;;;4986105;28;20465;-81
2024/01/28 09:20:49;;;;;;;2.33;2.13;;;21.50;66.70;;;;;;4984565;28;20466;-79
2024/01/28 09:23:15;;;;;;;2.37;2.17;;;21.50;66.80;;;;;;4984064;28;21504;-82
2024/01/28 09:25:42;;;;;;;2.43;2.20;;;21.50;66.80;;;;;;4989800;28;20471;-82
2024/01/28 09:28:09;;;;;;;3.47;2.37;;;21.50;66.80;;;;;;4992392;28;20466;-81
2024/01/28 09:30:35;;;;;;;2.77;2.47;;;21.50;66.70;;;;;;4986014;28;21034;-81
2024/01/28 09:33:05;;;;;;;2.17;1.97;;;21.50;66.70;;;;;;4987272;28;20462;-81
2024/01/28 09:35:31;;;;;;;2.90;2.60;;;21.50;66.80;;;;;;4989212;28;20465;-81
2024/01/28 09:37:58;;;;;;;2.73;2.30;;;21.50;66.80;;;;;;4988130;28;20988;-81
2024/01/28 09:40:25;;;;;;;2.50;2.30;;;21.50;66.70;;;;;;4986297;28;20466;-80
2024/01/28 09:42:59;;;;;;;2.97;2.67;;;21.50;66.70;;;;;;4984761;28;20489;-82
2024/01/28 09:45:27;;;;;;;1.90;1.70;;;21.50;66.70;;;;;;4986558;28;20462;-80
2024/01/28 09:47:55;;;;;;;3.10;2.10;;;21.50;66.70;;;;;;4988915;28;20206;-81
2024/01/28 09:50:23;;;;;;;2.00;1.80;;;21.50;66.70;;;;;;4981032;28;21126;-81
2024/01/28 09:52:50;;;;;;;3.07;2.77;;;21.50;66.70;;;;;;4990098;28;20995;-82
2024/01/28 09:55:17;;;;;;;3.93;2.20;;;21.50;66.70;;;;;;4989306;28;20463;-81
2024/01/28 09:57:46;;;;;;;3.33;2.17;;;21.50;66.80;;;;;;4981526;28;21823;-82
2024/01/28 10:00:14;;;;;;;3.30;2.27;;;21.50;66.60;;;;;;4979577;28;20465;-81
2024/01/28 10:02:41;;;;;;;3.40;2.10;;;21.50;66.60;;;;;;4982480;28;20481;-81
2024/01/28 10:05:10;;;;;;;2.78;2.20;;;21.50;66.60;;;;;;4981264;28;20497;-81
2024/01/28 10:07:50;;;;;;;2.40;2.20;;;21.50;66.60;;;;;;4986630;28;20204;-80
2024/01/28 10:10:18;;;;;;;2.10;1.90;;;21.50;66.70;;;;;;4987269;28;20462;-82
2024/01/28 10:12:47;;;;;;;2.50;2.30;;;21.50;66.60;;;;;;4986694;28;21017;-82
2024/01/28 10:15:15;;;;;;;2.23;2.10;;;21.50;66.70;;;;;;4984822;28;20905;-86
2024/01/28 10:17:46;;;;;;;2.17;1.73;;;21.50;66.80;;;;;;4990008;28;20490;-82
2024/01/28 10:20:13;;;;;;;3.80;1.87;;;21.50;67.00;;;;;;4983072;28;20482;-80
2024/01/28 10:22:40;;;;;;;3.50;2.80;;;21.40;67.00;;;;;;4984337;28;20481;-80
2024/01/28 10:25:15;;;;;;;3.33;2.43;;;21.40;67.30;;;;;;4981688;28;20482;-85
2024/01/28 10:27:42;;;;;;;3.25;2.08;;;21.40;67.60;;;;;;4987484;28;20464;-86
2024/01/28 10:30:11;;;;;;;4.30;2.57;;;21.40;67.30;;;;;;4988077;28;20209;-86
2024/01/28 10:32:38;;;;;;;3.50;2.70;;;21.40;67.40;;;;;;4979683;28;20465;-86
2024/01/28 10:35:08;;;;;;;5.53;2.13;;;21.40;67.30;;;;;;4981800;28;20632;-84
2024/01/28 10:37:35;;;;;;;1.77;1.50;;;21.40;68.00;;;;;;4984509;28;20473;-84
2024/01/28 10:40:05;;;;;;;2.65;1.98;;;21.40;68.60;;;;;;4983111;28;21323;-82
2024/01/28 10:42:37;;;;;;;3.17;2.40;;;21.40;69.00;;;;;;4986343;28;20215;-84
2024/01/28 10:45:07;;;;;;;3.23;2.00;;;21.50;69.40;;;;;;4995529;28;20465;-87
2024/01/28 10:47:36;;;;;;;2.10;1.80;;;21.50;69.50;;;;;;4990938;28;21507;-85
2024/01/28 10:50:08;;;;;;;5.57;2.30;;;21.60;69.80;;;;;;4988611;28;20451;-84
2024/01/28 10:52:37;;;;;;;3.83;1.70;;;21.60;69.80;;;;;;4994153;28;20501;-84
2024/01/28 10:55:05;;;;;;;2.70;2.17;;;21.70;69.90;;;;;;4996375;28;21215;-88
2024/01/28 10:57:34;;;;;;;1.90;1.80;;;21.70;69.80;;;;;;4988468;28;20466;-85
2024/01/28 11:00:01;;;;;;;3.00;1.80;;;21.70;69.80;;;;;;4989994;28;20471;-82
2024/01/28 11:02:29;;;;;;;2.07;1.70;;;21.80;69.60;;;;;;4982276;28;20492;-83
2024/01/28 11:04:56;;;;;;;5.63;1.90;;;21.80;69.60;;;;;;4983949;28;20450;-84
2024/01/28 11:07:24;;;;;;;2.47;2.27;;;21.90;69.80;;;;;;4986058;28;20905;-84
2024/01/28 11:09:51;;;;;;;1.70;1.60;;;21.90;69.80;;;;;;4984187;28;20922;-86
2024/01/28 11:12:19;;;;;;;10.20;1.90;;;21.90;69.70;;;;;;4990739;28;20451;-87
2024/01/28 11:14:47;;;;;;;2.00;1.80;;;22.00;69.80;;;;;;4985667;28;20465;-83
2024/01/28 11:17:14;;;;;;;1.90;1.70;;;22.00;69.70;;;;;;4985228;28;20458;-83
2024/01/28 11:19:41;;;;;;;1.80;1.70;;;22.00;69.60;;;;;;4981393;28;20588;-85
2024/01/28 11:22:14;;;;;;;2.03;1.83;;;22.00;69.50;;;;;;4985149;28;20470;-84
2024/01/28 11:24:53;;;;;;;4.03;1.77;;;22.00;69.40;;;;;;4984182;28;20500;-85
2024/01/28 11:27:20;;;;;;;2.50;1.80;;;22.10;69.50;;;;;;4989102;28;20526;-84
2024/01/28 11:29:49;;;;;;;2.23;1.63;;;22.10;69.40;;;;;;4984263;28;21539;-85
2024/01/28 11:32:16;;;;;;;4.60;1.70;;;22.10;69.30;;;;;;4982621;28;20469;-86
2024/01/28 11:34:44;;;;;;;1.93;1.70;;;22.10;69.20;;;;;;4987112;28;20460;-83
2024/01/28 11:37:15;;;;;;;1.97;1.73;;;22.10;69.10;;;;;;4990062;28;20520;-85
2024/01/28 11:39:46;;;;;;;3.23;2.00;;;22.10;69.00;;;;;;4987440;28;20501;-84
2024/01/28 11:42:13;;;;;;;3.60;1.53;;;22.10;69.00;;;;;;4981624;28;20488;-89
2024/01/28 11:44:41;;;;;;;2.80;2.00;;;22.10;68.90;;;;;;4987450;28;21029;-85
2024/01/28 11:47:11;;;;;;;3.00;2.00;;;22.20;69.00;;;;;;4987396;28;20467;-84
2024/01/28 11:49:38;;;;;;;2.70;1.80;;;22.20;68.90;;;;;;4981134;28;20466;-82
2024/01/28 11:52:07;;;;;;;3.50;1.90;;;22.20;68.90;;;;;;4989029;28;20466;-87
2024/01/28 11:54:33;;;;;;;3.97;1.83;;;22.20;68.90;;;;;;4980805;28;20467;-86
2024/01/28 11:57:00;;;;;;;1.60;1.50;;;22.20;68.90;;;;;;4981776;28;20469;-85
2024/01/28 11:59:27;;;;;;;1.80;1.40;;;22.20;68.90;;;;;;4978263;28;21066;-84
2024/01/28 12:01:54;;;;;;;2.93;1.73;;;22.30;69.00;;;;;;4982704;28;20482;-86
2024/01/28 12:04:22;;;;;;;3.10;1.70;;;22.20;68.90;;;;;;4983060;28;21320;-88
2024/01/28 12:06:49;;;;;;;1.70;1.53;;;22.20;68.90;;;;;;4988558;28;20454;-88
2024/01/28 12:09:16;;;;;;;2.47;2.27;;;22.30;69.00;;;;;;4985487;28;21572;-88
2024/01/28 12:11:43;;;;;;;2.60;1.90;;;22.30;69.00;;;;;;4987875;28;20469;-86
2024/01/28 12:14:10;;;;;;;2.57;1.67;;;22.30;68.90;;;;;;4988577;28;20451;-79
2024/01/28 12:16:37;;;;;;;4.87;2.00;;;22.40;69.00;;;;;;4978369;28;20475;-81
2024/01/28 12:19:04;;;;;;;5.03;2.33;;;22.40;68.80;;;;;;4979663;28;20470;-79
2024/01/28 12:21:34;;;;;;;2.43;1.57;;;22.40;68.70;;;;;;4986372;28;20465;-80
2024/01/28 12:24:02;;;;;;;2.47;1.90;;;22.40;68.70;;;;;;4988611;28;21093;-80
2024/01/28 12:26:29;;;;;;;1.90;1.50;;;22.40;68.50;;;;;;4982614;28;20469;-82
2024/01/28 12:28:56;;;;;;;2.80;1.63;;;22.40;68.40;;;;;;4978901;28;20549;-81
2024/01/28 12:31:23;;;;;;;1.80;1.40;;;22.40;68.30;;;;;;4978807;28;20457;-80
2024/01/28 12:33:51;;;;;;;2.70;1.80;;;22.40;68.20;;;;;;4979704;28;20461;-78
2024/01/28 12:36:18;;;;;;;1.90;1.60;;;22.40;68.10;;;;;;4983428;28;20462;-80
2024/01/28 12:38:46;;;;;;;1.77;1.50;;;22.40;68.00;;;;;;4983440;28;20470;-79
2024/01/28 12:41:13;;;;;;;2.30;1.87;;;22.40;67.50;;;;;;4976626;28;20963;-81
2024/01/28 12:43:43;;;;;;;4.00;2.00;;;22.40;66.80;;;;;;4993480;28;20485;-85
2024/01/28 12:46:10;;;;;;;2.27;1.73;;;22.30;66.50;;;;;;4987035;28;20601;-85
2024/01/28 12:48:36;;;;;;;4.07;1.87;;;22.30;66.70;;;;;;4982529;28;20458;-83